createdAt,value
2019-03-10T00:00:10.328Z,0.00
2019-03-10T00:01:10.321Z,0.00
2019-03-10T00:02:10.575Z,0.00
2019-03-10T00:03:10.312Z,0.00
2019-03-10T00:04:10.301Z,0.00
2019-03-10T00:05:10.295Z,0.00
2019-03-10T00:06:10.290Z,0.00
2019-03-10T00:07:10.282Z,0.00
2019-03-10T00:08:10.277Z,0.00
2019-03-10T00:09:10.270Z,0.00
2019-03-10T00:10:10.264Z,0.00
2019-03-10T00:11:10.256Z,0.00
2019-03-10T00:12:10.250Z,0.00
2019-03-10T00:13:10.243Z,0.00
2019-03-10T00:14:10.238Z,0.00
2019-03-10T00:15:10.232Z,0.00
2019-03-10T00:16:10.225Z,0.00
2019-03-10T00:17:10.217Z,0.00
2019-03-10T00:18:10.212Z,0.00
2019-03-10T00:19:10.204Z,0.00
2019-03-10T00:20:10.198Z,0.00
2019-03-10T00:21:10.194Z,0.00
2019-03-10T00:22:10.186Z,0.00
2019-03-10T00:23:10.179Z,0.00
2019-03-10T00:24:10.171Z,0.00
2019-03-10T00:25:10.216Z,0.00
2019-03-10T00:26:10.159Z,0.00
2019-03-10T00:27:10.153Z,0.00
2019-03-10T00:28:10.145Z,0.00
2019-03-10T00:29:10.139Z,0.00
2019-03-10T00:30:10.135Z,0.00
2019-03-10T00:31:10.127Z,0.00
2019-03-10T00:32:10.120Z,0.00
2019-03-10T00:33:10.115Z,0.00
2019-03-10T00:34:10.107Z,0.00
2019-03-10T00:35:10.099Z,0.00
2019-03-10T00:36:10.093Z,0.00
2019-03-10T00:37:10.089Z,0.00
2019-03-10T00:38:10.082Z,0.00
2019-03-10T00:39:10.073Z,0.00
2019-03-10T00:40:10.068Z,0.00
2019-03-10T00:41:10.064Z,0.00
2019-03-10T00:42:10.056Z,0.00
2019-03-10T00:43:10.049Z,0.00
2019-03-10T00:44:10.045Z,0.00
2019-03-10T00:45:10.035Z,0.00
2019-03-10T00:46:10.027Z,0.00
2019-03-10T00:47:10.021Z,0.00
2019-03-10T00:48:10.015Z,0.00
2019-03-10T00:49:10.010Z,0.00
2019-03-10T00:50:10.002Z,0.00
2019-03-10T00:51:09.996Z,0.00
2019-03-10T00:52:09.991Z,0.00
2019-03-10T00:53:09.983Z,0.00
2019-03-10T00:54:09.977Z,0.00
2019-03-10T00:55:09.969Z,0.00
2019-03-10T00:56:09.963Z,0.00
2019-03-10T00:57:09.955Z,0.00
2019-03-10T00:58:09.950Z,0.00
2019-03-10T00:59:09.944Z,0.00
2019-03-10T01:00:09.937Z,0.00
2019-03-10T01:01:09.930Z,0.00
2019-03-10T01:02:09.923Z,0.00
2019-03-10T01:03:09.916Z,0.00
2019-03-10T01:04:09.911Z,0.00
2019-03-10T01:05:09.903Z,0.00
2019-03-10T01:06:09.897Z,0.00
2019-03-10T01:07:09.890Z,0.00
2019-03-10T01:08:09.885Z,0.00
2019-03-10T01:09:09.878Z,0.00
2019-03-10T01:10:09.872Z,0.00
2019-03-10T01:11:09.865Z,0.00
2019-03-10T01:12:09.858Z,0.00
2019-03-10T01:13:09.852Z,0.00
2019-03-10T01:14:09.847Z,0.00
2019-03-10T01:15:09.840Z,0.00
2019-03-10T01:16:09.832Z,0.00
2019-03-10T01:17:09.826Z,0.00
2019-03-10T01:18:09.821Z,0.00
2019-03-10T01:19:09.811Z,0.00
2019-03-10T01:20:09.819Z,0.00
2019-03-10T01:21:09.800Z,0.00
2019-03-10T01:22:09.792Z,0.00
2019-03-10T01:23:09.788Z,0.00
2019-03-10T01:24:09.780Z,0.00
2019-03-10T01:25:09.773Z,0.00
2019-03-10T01:26:09.767Z,0.00
2019-03-10T01:27:09.760Z,0.00
2019-03-10T01:28:09.753Z,0.00
2019-03-10T01:29:09.748Z,0.00
2019-03-10T01:30:09.747Z,0.00
2019-03-10T01:31:09.733Z,0.00
2019-03-10T01:32:09.727Z,0.00
2019-03-10T01:33:09.721Z,0.00
2019-03-10T01:34:09.714Z,0.00
2019-03-10T01:35:09.709Z,0.00
2019-03-10T01:36:09.705Z,0.00
2019-03-10T01:37:09.695Z,0.00
2019-03-10T01:38:09.688Z,0.00
2019-03-10T01:39:09.682Z,0.00
2019-03-10T01:40:09.676Z,0.00
2019-03-10T01:41:09.671Z,0.00
2019-03-10T01:42:09.663Z,0.00
2019-03-10T01:43:09.659Z,0.00
2019-03-10T01:44:09.653Z,0.00
2019-03-10T01:45:09.644Z,0.00
2019-03-10T01:46:09.638Z,0.00
2019-03-10T01:47:09.631Z,0.00
2019-03-10T01:48:09.626Z,0.00
2019-03-10T01:49:09.617Z,0.00
2019-03-10T01:50:09.611Z,0.00
2019-03-10T01:51:09.603Z,0.00
2019-03-10T01:52:09.597Z,0.00
2019-03-10T01:53:09.591Z,0.00
2019-03-10T01:54:09.630Z,0.00
2019-03-10T01:55:09.578Z,0.00
2019-03-10T01:56:09.571Z,0.00
2019-03-10T01:57:09.566Z,0.00
2019-03-10T01:58:09.559Z,0.00
2019-03-10T01:59:09.555Z,0.00
2019-03-10T02:00:09.548Z,0.00
2019-03-10T02:01:09.539Z,0.00
2019-03-10T02:02:09.534Z,0.00
2019-03-10T02:03:09.526Z,0.00
2019-03-10T02:04:09.522Z,0.00
2019-03-10T02:05:09.513Z,0.00
2019-03-10T02:06:09.508Z,0.00
2019-03-10T02:07:09.504Z,0.00
2019-03-10T02:08:09.493Z,0.00
2019-03-10T02:09:09.487Z,0.00
2019-03-10T02:10:09.483Z,0.00
2019-03-10T02:11:09.475Z,0.00
2019-03-10T02:12:09.469Z,0.00
2019-03-10T02:13:09.462Z,0.00
2019-03-10T02:14:09.455Z,0.00
2019-03-10T02:15:09.448Z,0.00
2019-03-10T02:16:09.441Z,0.00
2019-03-10T02:17:09.435Z,0.00
2019-03-10T02:18:09.430Z,0.00
2019-03-10T02:19:09.423Z,0.00
2019-03-10T02:20:09.417Z,0.00
2019-03-10T02:21:09.411Z,0.00
2019-03-10T02:22:09.404Z,0.00
2019-03-10T02:23:09.397Z,0.00
2019-03-10T02:24:09.390Z,0.00
2019-03-10T02:25:09.384Z,0.00
2019-03-10T02:26:09.380Z,0.00
2019-03-10T02:27:09.371Z,0.00
2019-03-10T02:28:09.366Z,0.00
2019-03-10T02:29:09.358Z,0.00
2019-03-10T02:30:09.352Z,0.00
2019-03-10T02:31:09.344Z,0.00
2019-03-10T02:32:09.341Z,0.00
2019-03-10T02:33:09.333Z,0.00
2019-03-10T02:34:09.327Z,0.00
2019-03-10T02:35:09.327Z,0.00
2019-03-10T02:36:09.313Z,0.00
2019-03-10T02:37:09.309Z,0.00
2019-03-10T02:38:09.301Z,0.00
2019-03-10T02:39:09.296Z,0.00
2019-03-10T02:40:09.308Z,0.00
2019-03-10T02:41:09.282Z,0.00
2019-03-10T02:42:09.305Z,0.00
2019-03-10T02:43:09.274Z,0.00
2019-03-10T02:44:09.271Z,0.00
2019-03-10T02:45:09.257Z,0.00
2019-03-10T02:46:09.261Z,0.00
2019-03-10T02:47:09.244Z,0.00
2019-03-10T02:48:09.245Z,0.00
2019-03-10T02:49:09.234Z,0.00
2019-03-10T02:50:09.227Z,0.00
2019-03-10T02:51:09.218Z,0.00
2019-03-10T02:52:09.212Z,0.00
2019-03-10T02:53:09.209Z,0.00
2019-03-10T02:54:09.201Z,0.00
2019-03-10T02:55:09.207Z,0.00
2019-03-10T02:56:09.185Z,0.00
2019-03-10T02:57:09.179Z,0.00
2019-03-10T02:58:09.174Z,0.00
2019-03-10T02:59:09.190Z,0.00
2019-03-10T03:00:09.162Z,0.00
2019-03-10T03:01:09.159Z,0.00
2019-03-10T03:02:09.148Z,0.00
2019-03-10T03:03:09.143Z,0.00
2019-03-10T03:04:09.153Z,0.00
2019-03-10T03:05:09.129Z,0.00
2019-03-10T03:06:09.126Z,0.00
2019-03-10T03:07:09.116Z,0.00
2019-03-10T03:08:09.110Z,0.00
2019-03-10T03:09:09.106Z,0.00
2019-03-10T03:10:09.099Z,0.00
2019-03-10T03:11:09.091Z,0.00
2019-03-10T03:12:09.088Z,0.00
2019-03-10T03:13:09.082Z,0.00
2019-03-10T03:14:09.077Z,0.00
2019-03-10T03:15:09.072Z,0.00
2019-03-10T03:16:09.060Z,0.00
2019-03-10T03:17:09.054Z,0.00
2019-03-10T03:18:09.049Z,0.00
2019-03-10T03:19:09.040Z,0.00
2019-03-10T03:20:09.034Z,0.00
2019-03-10T03:21:09.044Z,0.00
2019-03-10T03:22:09.022Z,0.00
2019-03-10T03:23:09.014Z,0.00
2019-03-10T03:24:09.009Z,0.00
2019-03-10T03:25:09.011Z,0.00
2019-03-10T03:26:09.000Z,0.00
2019-03-10T03:27:08.992Z,0.00
2019-03-10T03:28:08.985Z,0.00
2019-03-10T03:29:08.990Z,0.00
2019-03-10T03:30:08.974Z,0.00
2019-03-10T03:31:08.967Z,0.00
2019-03-10T03:32:08.960Z,0.00
2019-03-10T03:33:08.957Z,0.00
2019-03-10T03:34:08.950Z,0.00
2019-03-10T03:35:08.949Z,0.00
2019-03-10T03:36:08.935Z,0.00
2019-03-10T03:37:08.929Z,0.00
2019-03-10T03:38:08.923Z,0.00
2019-03-10T03:39:08.916Z,0.00
2019-03-10T03:40:08.910Z,0.00
2019-03-10T03:41:08.905Z,0.00
2019-03-10T03:42:08.897Z,0.00
2019-03-10T03:43:08.891Z,0.00
2019-03-10T03:44:08.883Z,0.00
2019-03-10T03:45:08.879Z,0.00
2019-03-10T03:46:08.873Z,0.00
2019-03-10T03:47:08.865Z,0.00
2019-03-10T03:48:08.864Z,0.00
2019-03-10T03:49:08.857Z,0.00
2019-03-10T03:50:08.845Z,0.00
2019-03-10T03:51:08.839Z,0.00
2019-03-10T03:52:08.836Z,0.00
2019-03-10T03:53:08.847Z,0.00
2019-03-10T03:54:08.821Z,0.00
2019-03-10T03:55:08.815Z,0.00
2019-03-10T03:56:08.833Z,0.00
2019-03-10T03:57:08.804Z,0.00
2019-03-10T03:58:08.797Z,0.00
2019-03-10T03:59:08.789Z,0.00
2019-03-10T04:00:08.782Z,0.00
2019-03-10T04:01:08.777Z,0.00
2019-03-10T04:02:08.772Z,0.00
2019-03-10T04:03:08.765Z,0.00
2019-03-10T04:04:08.812Z,0.00
2019-03-10T04:05:08.754Z,0.00
2019-03-10T04:06:08.768Z,0.00
2019-03-10T04:07:08.739Z,0.00
2019-03-10T04:08:08.734Z,0.00
2019-03-10T04:09:08.730Z,0.00
2019-03-10T04:10:08.728Z,0.00
2019-03-10T04:11:08.720Z,0.00
2019-03-10T04:12:08.709Z,0.00
2019-03-10T04:13:08.708Z,0.00
2019-03-10T04:14:08.696Z,0.00
2019-03-10T04:15:08.688Z,0.00
2019-03-10T04:16:08.687Z,0.00
2019-03-10T04:17:08.678Z,0.00
2019-03-10T04:18:08.670Z,0.00
2019-03-10T04:19:08.666Z,0.00
2019-03-10T04:20:08.659Z,0.00
2019-03-10T04:21:08.653Z,0.00
2019-03-10T04:22:08.647Z,0.00
2019-03-10T04:23:08.640Z,0.00
2019-03-10T04:24:08.633Z,0.00
2019-03-10T04:25:08.628Z,0.00
2019-03-10T04:26:08.632Z,0.00
2019-03-10T04:27:08.685Z,0.00
2019-03-10T04:28:08.606Z,0.00
2019-03-10T04:29:08.602Z,0.00
2019-03-10T04:30:08.596Z,0.00
2019-03-10T04:31:08.590Z,0.00
2019-03-10T04:32:08.583Z,0.00
2019-03-10T04:33:08.575Z,0.00
2019-03-10T04:34:08.571Z,0.00
2019-03-10T04:35:08.563Z,0.00
2019-03-10T04:36:08.557Z,0.00
2019-03-10T04:37:08.589Z,0.00
2019-03-10T04:38:08.547Z,0.00
2019-03-10T04:39:08.537Z,0.00
2019-03-10T04:40:08.533Z,0.00
2019-03-10T04:41:08.525Z,0.00
2019-03-10T04:42:08.519Z,0.00
2019-03-10T04:43:08.517Z,0.00
2019-03-10T04:44:08.506Z,0.00
2019-03-10T04:45:08.501Z,0.00
2019-03-10T04:46:08.493Z,0.00
2019-03-10T04:47:08.485Z,0.00
2019-03-10T04:48:08.479Z,0.00
2019-03-10T04:49:08.474Z,0.00
2019-03-10T04:50:08.468Z,0.00
2019-03-10T04:51:08.460Z,0.00
2019-03-10T04:52:08.457Z,0.00
2019-03-10T04:53:08.448Z,0.00
2019-03-10T04:54:08.443Z,0.00
2019-03-10T04:55:08.438Z,0.00
2019-03-10T04:56:08.427Z,0.00
2019-03-10T04:57:08.423Z,0.00
2019-03-10T04:58:08.415Z,0.00
2019-03-10T04:59:08.415Z,0.00
2019-03-10T05:00:08.404Z,0.00
2019-03-10T05:01:08.395Z,0.00
2019-03-10T05:02:08.390Z,0.00
2019-03-10T05:03:08.385Z,0.00
2019-03-10T05:04:08.377Z,0.00
2019-03-10T05:05:08.371Z,0.00
2019-03-10T05:06:08.364Z,0.00
2019-03-10T05:07:08.360Z,0.00
2019-03-10T05:08:08.350Z,0.00
2019-03-10T05:09:08.346Z,0.00
2019-03-10T05:10:08.339Z,0.00
2019-03-10T05:11:08.336Z,0.00
2019-03-10T05:12:08.325Z,0.00
2019-03-10T05:13:08.321Z,0.00
2019-03-10T05:14:08.312Z,0.00
2019-03-10T05:15:08.306Z,0.00
2019-03-10T05:16:08.299Z,0.00
2019-03-10T05:17:08.294Z,0.00
2019-03-10T05:18:08.288Z,0.00
2019-03-10T05:19:08.279Z,0.00
2019-03-10T05:20:08.274Z,0.00
2019-03-10T05:21:08.268Z,0.00
2019-03-10T05:22:08.262Z,0.00
2019-03-10T05:23:08.255Z,0.00
2019-03-10T05:24:08.247Z,0.00
2019-03-10T05:25:08.243Z,0.00
2019-03-10T05:26:08.235Z,0.00
2019-03-10T05:27:08.228Z,0.00
2019-03-10T05:28:08.222Z,0.00
2019-03-10T05:29:08.216Z,0.00
2019-03-10T05:30:08.210Z,0.00
2019-03-10T05:31:08.209Z,0.00
2019-03-10T05:32:08.198Z,0.00
2019-03-10T05:33:08.192Z,0.00
2019-03-10T05:34:08.184Z,0.00
2019-03-10T05:35:08.179Z,0.00
2019-03-10T05:36:08.174Z,0.00
2019-03-10T05:37:08.166Z,0.00
2019-03-10T05:38:08.162Z,0.00
2019-03-10T05:39:08.156Z,0.00
2019-03-10T05:40:08.151Z,0.00
2019-03-10T05:41:08.143Z,4.00
2019-03-10T05:42:08.134Z,0.00
2019-03-10T05:43:08.129Z,4.00
2019-03-10T05:44:08.122Z,4.00
2019-03-10T05:45:08.116Z,4.00
2019-03-10T05:46:08.110Z,4.00
2019-03-10T05:47:08.103Z,8.00
2019-03-10T05:48:08.097Z,4.00
2019-03-10T05:49:08.091Z,8.00
2019-03-10T05:50:08.085Z,4.00
2019-03-10T05:51:08.080Z,8.00
2019-03-10T05:52:08.073Z,12.00
2019-03-10T05:53:08.066Z,12.00
2019-03-10T05:54:08.060Z,12.00
2019-03-10T05:55:08.054Z,16.00
2019-03-10T05:56:08.047Z,12.00
2019-03-10T05:57:08.041Z,16.00
2019-03-10T05:58:08.034Z,12.00
2019-03-10T05:59:08.029Z,12.00
2019-03-10T06:00:08.023Z,16.00
2019-03-10T06:01:08.016Z,20.00
2019-03-10T06:02:08.010Z,20.00
2019-03-10T06:03:08.002Z,24.00
2019-03-10T06:04:07.996Z,36.00
2019-03-10T06:05:07.991Z,40.00
2019-03-10T06:06:07.987Z,40.00
2019-03-10T06:07:07.977Z,32.00
2019-03-10T06:08:07.970Z,36.00
2019-03-10T06:09:07.964Z,32.00
2019-03-10T06:10:07.959Z,36.00
2019-03-10T06:11:07.951Z,44.00
2019-03-10T06:12:07.945Z,48.00
2019-03-10T06:13:07.939Z,60.00
2019-03-10T06:14:07.934Z,68.00
2019-03-10T06:15:07.928Z,72.00
2019-03-10T06:16:07.919Z,76.00
2019-03-10T06:17:07.916Z,72.00
2019-03-10T06:18:13.467Z,84.00
2019-03-10T06:19:07.902Z,92.00
2019-03-10T06:20:07.895Z,104.00
2019-03-10T06:21:07.890Z,112.00
2019-03-10T06:22:07.883Z,120.00
2019-03-10T06:23:07.875Z,128.00
2019-03-10T06:24:07.871Z,144.00
2019-03-10T06:25:07.865Z,156.00
2019-03-10T06:26:07.858Z,168.00
2019-03-10T06:27:07.854Z,176.00
2019-03-10T06:28:07.846Z,172.00
2019-03-10T06:29:07.842Z,164.00
2019-03-10T06:30:07.834Z,160.00
2019-03-10T06:31:07.826Z,148.00
2019-03-10T06:32:07.821Z,156.00
2019-03-10T06:33:07.813Z,168.00
2019-03-10T06:34:07.808Z,188.00
2019-03-10T06:35:07.800Z,220.00
2019-03-10T06:36:07.794Z,248.00
2019-03-10T06:37:07.789Z,272.00
2019-03-10T06:38:07.783Z,296.00
2019-03-10T06:39:07.777Z,320.00
2019-03-10T06:40:07.769Z,328.00
2019-03-10T06:41:07.762Z,344.00
2019-03-10T06:42:07.755Z,348.00
2019-03-10T06:43:07.752Z,352.00
2019-03-10T06:44:07.743Z,352.00
2019-03-10T06:45:07.737Z,336.00
2019-03-10T06:46:07.730Z,304.00
2019-03-10T06:47:07.723Z,280.00
2019-03-10T06:48:07.716Z,268.00
2019-03-10T06:49:07.711Z,268.00
2019-03-10T06:50:07.705Z,272.00
2019-03-10T06:51:07.697Z,268.00
2019-03-10T06:52:07.691Z,284.00
2019-03-10T06:53:07.686Z,312.00
2019-03-10T06:54:07.678Z,348.00
2019-03-10T06:55:07.671Z,364.00
2019-03-10T06:56:07.666Z,344.00
2019-03-10T06:57:07.659Z,324.00
2019-03-10T06:58:07.653Z,332.00
2019-03-10T06:59:07.645Z,376.00
2019-03-10T07:00:07.639Z,412.00
2019-03-10T07:01:07.634Z,436.00
2019-03-10T07:02:07.628Z,476.00
2019-03-10T07:03:07.622Z,528.00
2019-03-10T07:04:07.614Z,600.00
2019-03-10T07:05:07.612Z,700.00
2019-03-10T07:06:07.602Z,808.00
2019-03-10T07:07:07.594Z,892.00
2019-03-10T07:08:07.589Z,836.00
2019-03-10T07:09:07.582Z,744.00
2019-03-10T07:10:07.576Z,720.00
2019-03-10T07:11:07.568Z,732.00
2019-03-10T07:12:07.565Z,676.00
2019-03-10T07:13:07.555Z,596.00
2019-03-10T07:14:07.549Z,600.00
2019-03-10T07:15:07.543Z,640.00
2019-03-10T07:16:07.537Z,680.00
2019-03-10T07:17:07.530Z,724.00
2019-03-10T07:18:07.524Z,688.00
2019-03-10T07:19:07.516Z,636.00
2019-03-10T07:20:07.509Z,636.00
2019-03-10T07:21:07.504Z,672.00
2019-03-10T07:22:07.497Z,700.00
2019-03-10T07:23:07.491Z,740.00
2019-03-10T07:24:07.484Z,784.00
2019-03-10T07:25:07.477Z,796.00
2019-03-10T07:26:07.472Z,804.00
2019-03-10T07:27:07.464Z,848.00
2019-03-10T07:28:07.458Z,952.00
2019-03-10T07:29:07.453Z,900.00
2019-03-10T07:30:07.446Z,904.00
2019-03-10T07:31:07.437Z,992.00
2019-03-10T07:32:09.015Z,908.00
2019-03-10T07:33:07.426Z,796.00
2019-03-10T07:34:07.419Z,776.00
2019-03-10T07:35:07.413Z,740.00
2019-03-10T07:36:07.406Z,812.00
2019-03-10T07:37:07.400Z,1096.00
2019-03-10T07:38:07.395Z,1148.00
2019-03-10T07:39:07.386Z,1064.00
2019-03-10T07:40:07.383Z,1100.00
2019-03-10T07:41:07.375Z,1116.00
2019-03-10T07:42:07.368Z,1092.00
2019-03-10T07:43:07.362Z,1076.00
2019-03-10T07:44:07.358Z,1068.00
2019-03-10T07:45:07.350Z,1032.00
2019-03-10T07:46:07.342Z,1004.00
2019-03-10T07:47:07.336Z,992.00
2019-03-10T07:48:07.328Z,972.00
2019-03-10T07:49:07.347Z,928.00
2019-03-10T07:50:07.319Z,904.00
2019-03-10T07:51:07.328Z,892.00
2019-03-10T07:52:07.303Z,932.00
2019-03-10T07:53:07.296Z,988.00
2019-03-10T07:54:07.293Z,1096.00
2019-03-10T07:55:07.283Z,1232.00
2019-03-10T07:56:07.276Z,1312.00
2019-03-10T07:57:07.271Z,1332.00
2019-03-10T07:58:07.264Z,1196.00
2019-03-10T07:59:07.256Z,944.00
2019-03-10T08:00:07.251Z,808.00
2019-03-10T08:01:07.244Z,780.00
2019-03-10T08:02:07.245Z,712.00
2019-03-10T08:03:07.232Z,532.00
2019-03-10T08:04:07.226Z,468.00
2019-03-10T08:05:07.218Z,460.00
2019-03-10T08:06:07.215Z,496.00
2019-03-10T08:07:07.205Z,572.00
2019-03-10T08:08:07.198Z,664.00
2019-03-10T08:09:07.193Z,760.00
2019-03-10T08:10:07.194Z,724.00
2019-03-10T08:11:07.190Z,684.00
2019-03-10T08:12:07.173Z,792.00
2019-03-10T08:13:07.168Z,1064.00
2019-03-10T08:14:07.164Z,1196.00
2019-03-10T08:15:07.153Z,1324.00
2019-03-10T08:16:07.148Z,1280.00
2019-03-10T08:17:07.142Z,1484.00
2019-03-10T08:18:07.135Z,1508.00
2019-03-10T08:19:07.129Z,1292.00
2019-03-10T08:20:07.122Z,1456.00
2019-03-10T08:21:07.116Z,1304.00
2019-03-10T08:22:07.109Z,1384.00
2019-03-10T08:23:07.101Z,1480.00
2019-03-10T08:24:07.096Z,1456.00
2019-03-10T08:25:07.092Z,1796.00
2019-03-10T08:26:07.084Z,2264.00
2019-03-10T08:27:07.076Z,2360.00
2019-03-10T08:28:07.069Z,2344.00
2019-03-10T08:29:07.063Z,2184.00
2019-03-10T08:30:07.058Z,1860.00
2019-03-10T08:31:07.051Z,1776.00
2019-03-10T08:32:07.046Z,1868.00
2019-03-10T08:33:07.060Z,1764.00
2019-03-10T08:34:07.032Z,1728.00
2019-03-10T08:35:07.025Z,1512.00
2019-03-10T08:36:07.018Z,1324.00
2019-03-10T08:37:07.013Z,1472.00
2019-03-10T08:38:07.006Z,1872.00
2019-03-10T08:39:06.999Z,1948.00
2019-03-10T08:40:06.991Z,2148.00
2019-03-10T08:41:06.986Z,2072.00
2019-03-10T08:42:06.980Z,1996.00
2019-03-10T08:43:06.975Z,1992.00
2019-03-10T08:44:06.967Z,2024.00
2019-03-10T08:45:06.960Z,2464.00
2019-03-10T08:46:06.955Z,2476.00
2019-03-10T08:47:06.948Z,2548.00
2019-03-10T08:48:06.941Z,2676.00
2019-03-10T08:49:06.936Z,2640.00
2019-03-10T08:50:06.929Z,2352.00
2019-03-10T08:51:06.921Z,2472.00
2019-03-10T08:52:06.917Z,2884.00
2019-03-10T08:53:06.908Z,2312.00
2019-03-10T08:54:06.905Z,1780.00
2019-03-10T08:55:06.896Z,1420.00
2019-03-10T08:56:06.889Z,1436.00
2019-03-10T08:57:06.883Z,1528.00
2019-03-10T08:58:06.887Z,1336.00
2019-03-10T08:59:06.874Z,1252.00
2019-03-10T09:00:06.863Z,1300.00
2019-03-10T09:01:06.857Z,1380.00
2019-03-10T09:02:06.851Z,1444.00
2019-03-10T09:03:06.844Z,1596.00
2019-03-10T09:04:06.837Z,1900.00
2019-03-10T09:05:06.837Z,1920.00
2019-03-10T09:06:06.830Z,1952.00
2019-03-10T09:07:06.819Z,2216.00
2019-03-10T09:08:06.812Z,1632.00
2019-03-10T09:09:06.805Z,1460.00
2019-03-10T09:10:06.918Z,1712.00
2019-03-10T09:11:06.793Z,2008.00
2019-03-10T09:12:06.791Z,2100.00
2019-03-10T09:13:06.780Z,2120.00
2019-03-10T09:14:06.774Z,1844.00
2019-03-10T09:15:06.768Z,2064.00
2019-03-10T09:16:06.762Z,2688.00
2019-03-10T09:17:06.755Z,2620.00
2019-03-10T09:18:06.751Z,1700.00
2019-03-10T09:19:06.742Z,1320.00
2019-03-10T09:20:06.736Z,1388.00
2019-03-10T09:21:06.730Z,1516.00
2019-03-10T09:22:06.724Z,1764.00
2019-03-10T09:23:06.717Z,1656.00
2019-03-10T09:24:06.712Z,1668.00
2019-03-10T09:25:06.705Z,2196.00
2019-03-10T09:26:06.699Z,2172.00
2019-03-10T09:27:06.693Z,1800.00
2019-03-10T09:28:06.684Z,1664.00
2019-03-10T09:29:06.680Z,2412.00
2019-03-10T09:30:06.674Z,2720.00
2019-03-10T09:31:06.667Z,2440.00
2019-03-10T09:32:06.661Z,2012.00
2019-03-10T09:33:06.653Z,1780.00
2019-03-10T09:34:06.649Z,2064.00
2019-03-10T09:35:06.641Z,2344.00
2019-03-10T09:36:06.635Z,1840.00
2019-03-10T09:37:06.628Z,1344.00
2019-03-10T09:38:06.625Z,1224.00
2019-03-10T09:39:06.616Z,1228.00
2019-03-10T09:40:06.611Z,1344.00
2019-03-10T09:41:06.605Z,1656.00
2019-03-10T09:42:06.597Z,1716.00
2019-03-10T09:43:06.589Z,1676.00
2019-03-10T09:44:06.583Z,1800.00
2019-03-10T09:45:06.579Z,1928.00
2019-03-10T09:46:06.571Z,2152.00
2019-03-10T09:47:06.565Z,2180.00
2019-03-10T09:48:06.568Z,2188.00
2019-03-10T09:49:06.552Z,2404.00
2019-03-10T09:50:06.545Z,3040.00
2019-03-10T09:51:06.538Z,3088.00
2019-03-10T09:52:06.541Z,2860.00
2019-03-10T09:53:06.528Z,3220.00
2019-03-10T09:54:06.520Z,3436.00
2019-03-10T09:55:06.514Z,3100.00
2019-03-10T09:56:06.509Z,2360.00
2019-03-10T09:57:06.501Z,1776.00
2019-03-10T09:58:06.496Z,1580.00
2019-03-10T09:59:06.488Z,1652.00
2019-03-10T10:00:06.482Z,1640.00
2019-03-10T10:01:06.477Z,1724.00
2019-03-10T10:02:06.471Z,1708.00
2019-03-10T10:03:06.465Z,1964.00
2019-03-10T10:04:06.460Z,2008.00
2019-03-10T10:05:06.453Z,1588.00
2019-03-10T10:06:06.446Z,1416.00
2019-03-10T10:07:06.444Z,1516.00
2019-03-10T10:08:06.433Z,1520.00
2019-03-10T10:09:06.427Z,1608.00
2019-03-10T10:10:06.427Z,1612.00
2019-03-10T10:11:06.416Z,1660.00
2019-03-10T10:12:13.346Z,1756.00
2019-03-10T10:13:06.402Z,1936.00
2019-03-10T10:14:06.398Z,1840.00
2019-03-10T10:15:06.408Z,1956.00
2019-03-10T10:16:06.384Z,2012.00
2019-03-10T10:17:06.380Z,1836.00
2019-03-10T10:18:06.374Z,1932.00
2019-03-10T10:19:06.366Z,1968.00
2019-03-10T10:20:06.361Z,1800.00
2019-03-10T10:21:06.354Z,1680.00
2019-03-10T10:22:06.348Z,1764.00
2019-03-10T10:23:06.345Z,1768.00
2019-03-10T10:24:06.336Z,1804.00
2019-03-10T10:25:06.328Z,1860.00
2019-03-10T10:26:06.324Z,2228.00
2019-03-10T10:27:06.320Z,3112.00
2019-03-10T10:28:06.310Z,4044.00
2019-03-10T10:29:06.304Z,5884.00
2019-03-10T10:30:06.299Z,5668.00
2019-03-10T10:31:06.292Z,5024.00
2019-03-10T10:32:06.286Z,3896.00
2019-03-10T10:33:06.280Z,3460.00
2019-03-10T10:34:06.274Z,3208.00
2019-03-10T10:35:06.267Z,2860.00
2019-03-10T10:36:06.261Z,2676.00
2019-03-10T10:37:06.256Z,2460.00
2019-03-10T10:38:06.248Z,2712.00
2019-03-10T10:39:06.243Z,2844.00
2019-03-10T10:40:06.237Z,3012.00
2019-03-10T10:41:06.231Z,3460.00
2019-03-10T10:42:06.225Z,3668.00
2019-03-10T10:43:06.227Z,3456.00
2019-03-10T10:44:06.212Z,3224.00
2019-03-10T10:45:06.209Z,2980.00
2019-03-10T10:46:06.201Z,3200.00
2019-03-10T10:47:06.202Z,3524.00
2019-03-10T10:48:06.193Z,3524.00
2019-03-10T10:49:06.195Z,3588.00
2019-03-10T10:50:06.192Z,3660.00
2019-03-10T10:51:06.170Z,3568.00
2019-03-10T10:52:06.172Z,3352.00
2019-03-10T10:53:06.170Z,3228.00
2019-03-10T10:54:06.160Z,2908.00
2019-03-10T10:55:06.148Z,3156.00
2019-03-10T10:56:06.142Z,3956.00
2019-03-10T10:57:06.201Z,3456.00
2019-03-10T10:58:06.131Z,3224.00
2019-03-10T10:59:06.123Z,3972.00
2019-03-10T11:00:06.118Z,3900.00
2019-03-10T11:01:06.113Z,3844.00
2019-03-10T11:02:06.106Z,3756.00
2019-03-10T11:03:06.100Z,3932.00
2019-03-10T11:04:06.095Z,2908.00
2019-03-10T11:05:06.090Z,2780.00
2019-03-10T11:06:06.083Z,2536.00
2019-03-10T11:07:06.078Z,2204.00
2019-03-10T11:08:06.074Z,2152.00
2019-03-10T11:09:06.071Z,2208.00
2019-03-10T11:10:06.062Z,2168.00
2019-03-10T11:11:06.053Z,2184.00
2019-03-10T11:12:06.061Z,2544.00
2019-03-10T11:13:06.044Z,2888.00
2019-03-10T11:14:06.041Z,2956.00
2019-03-10T11:15:06.029Z,2656.00
2019-03-10T11:16:06.024Z,2056.00
2019-03-10T11:17:06.019Z,2108.00
2019-03-10T11:18:09.617Z,1840.00
2019-03-10T11:19:06.007Z,1644.00
2019-03-10T11:20:06.002Z,1960.00
2019-03-10T11:21:06.005Z,2496.00
2019-03-10T11:22:05.993Z,1944.00
2019-03-10T11:23:05.984Z,1748.00
2019-03-10T11:24:05.987Z,1612.00
2019-03-10T11:25:05.973Z,1844.00
2019-03-10T11:26:08.358Z,1984.00
2019-03-10T11:27:05.961Z,2124.00
2019-03-10T11:28:05.959Z,1804.00
2019-03-10T11:29:05.957Z,2252.00
2019-03-10T11:30:05.944Z,2656.00
2019-03-10T11:31:05.937Z,2408.00
2019-03-10T11:32:05.933Z,1704.00
2019-03-10T11:33:05.926Z,2580.00
2019-03-10T11:34:05.919Z,2344.00
2019-03-10T11:35:05.914Z,2064.00
2019-03-10T11:36:05.907Z,2160.00
2019-03-10T11:37:05.904Z,2296.00
2019-03-10T11:38:05.897Z,3080.00
2019-03-10T11:39:05.889Z,3620.00
2019-03-10T11:40:05.885Z,3524.00
2019-03-10T11:41:05.878Z,2264.00
2019-03-10T11:42:05.874Z,2060.00
2019-03-10T11:43:05.866Z,1788.00
2019-03-10T11:44:05.860Z,1364.00
2019-03-10T11:45:05.855Z,1624.00
2019-03-10T11:46:05.849Z,1644.00
2019-03-10T11:47:05.843Z,1884.00
2019-03-10T11:48:05.837Z,2484.00
2019-03-10T11:49:05.832Z,2260.00
2019-03-10T11:50:05.825Z,2164.00
2019-03-10T11:51:05.819Z,2688.00
2019-03-10T11:52:05.815Z,3236.00
2019-03-10T11:53:05.809Z,3008.00
2019-03-10T11:54:05.805Z,2420.00
2019-03-10T11:55:05.833Z,2464.00
2019-03-10T11:56:05.790Z,2036.00
2019-03-10T11:57:05.789Z,1812.00
2019-03-10T11:58:05.779Z,1976.00
2019-03-10T11:59:05.774Z,2340.00
2019-03-10T12:00:05.767Z,2584.00
2019-03-10T12:01:05.762Z,2724.00
2019-03-10T12:02:15.493Z,2796.00
2019-03-10T12:03:05.750Z,2852.00
2019-03-10T12:04:05.744Z,3316.00
2019-03-10T12:05:05.747Z,3428.00
2019-03-10T12:06:05.739Z,3904.00
2019-03-10T12:07:05.728Z,2984.00
2019-03-10T12:08:05.721Z,2076.00
2019-03-10T12:09:05.717Z,1808.00
2019-03-10T12:10:05.713Z,2244.00
2019-03-10T12:11:05.704Z,2544.00
2019-03-10T12:12:05.714Z,3328.00
2019-03-10T12:13:05.694Z,3288.00
2019-03-10T12:14:05.689Z,3400.00
2019-03-10T12:15:05.681Z,2720.00
2019-03-10T12:16:05.678Z,1748.00
2019-03-10T12:17:05.670Z,1536.00
2019-03-10T12:18:05.665Z,1724.00
2019-03-10T12:19:05.660Z,1660.00
2019-03-10T12:20:05.654Z,1380.00
2019-03-10T12:21:05.648Z,1100.00
2019-03-10T12:22:05.646Z,1752.00
2019-03-10T12:23:05.637Z,2564.00
2019-03-10T12:24:05.632Z,2668.00
2019-03-10T12:25:05.628Z,2600.00
2019-03-10T12:26:05.621Z,2552.00
2019-03-10T12:27:05.616Z,2548.00
2019-03-10T12:28:05.611Z,2816.00
2019-03-10T12:29:05.606Z,2988.00
2019-03-10T12:30:05.601Z,3196.00
2019-03-10T12:31:05.595Z,3364.00
2019-03-10T12:32:05.590Z,3472.00
2019-03-10T12:33:05.587Z,3748.00
2019-03-10T12:34:05.692Z,4492.00
2019-03-10T12:35:05.644Z,4732.00
2019-03-10T12:36:05.567Z,5820.00
2019-03-10T12:37:05.563Z,6576.00
2019-03-10T12:38:05.557Z,6548.00
2019-03-10T12:39:05.552Z,6984.00
2019-03-10T12:40:05.546Z,6768.00
2019-03-10T12:41:05.541Z,6000.00
2019-03-10T12:42:05.536Z,5472.00